WetterOnline ( https://www.wetteronline.de )

Wetter aktuell Baunei

Aktuelles Wetter: Capo Bellavista (150m)

6-stündlich | Neueste Meldungen
Ortszeit Temperatur Wetter
Mi, 21.10. 14:00 23.4° C leicht bewölkt
Mi, 21.10. 8:00 15.0° C wolkig
Mi, 21.10. 2:00 14.8° C leicht bewölkt
Di, 20.10. 20:00 17.2° C leicht bewölkt
Di, 20.10. 14:00 23.0° C leicht bewölkt
Di, 20.10. 8:00 13.2° C leicht bewölkt
Di, 20.10. 2:00 14.8° C fast wolkenlos
Mo, 19.10. 20:00 17.0° C leicht bewölkt
Ortszeit Temperatur Wetter
Mi, 21.10. 18:00 20.4° C leicht bewölkt
Mi, 21.10. 17:55 20° C leicht bewölkt
Mi, 21.10. 17:00 22.0° C leicht bewölkt
Mi, 21.10. 16:55 22° C leicht bewölkt
Mi, 21.10. 16:00 24.0° C leicht bewölkt
Mi, 21.10. 15:55 24° C leicht bewölkt
Mi, 21.10. 15:00 23.0° C leicht bewölkt
Mi, 21.10. 14:55 23° C leicht bewölkt
Mi, 21.10. 14:00 23.4° C leicht bewölkt
Ortszeit Relative Feuchte Sichtweite
Mi, 21.10. 14:00 83% 30 km
Mi, 21.10. 8:00 80% 20 km
Mi, 21.10. 2:00 83% 20 km
Di, 20.10. 20:00 70% 30 km
Di, 20.10. 14:00 51% 20 km
Di, 20.10. 8:00 79% 30 km
Di, 20.10. 2:00 86% 20 km
Mo, 19.10. 20:00 78% 30 km
Ortszeit Relative Feuchte Sichtweite
Mi, 21.10. 18:00 100% 20 km
Mi, 21.10. 17:55 100% >10 km
Mi, 21.10. 17:00 89% 20 km
Mi, 21.10. 16:55 88% >10 km
Mi, 21.10. 16:00 82% 20 km
Mi, 21.10. 15:55 83% >10 km
Mi, 21.10. 15:00 82% 20 km
Mi, 21.10. 14:55 83% >10 km
Mi, 21.10. 14:00 83% 30 km
Ortszeit Niederschlagsmenge Niederschlagsart
Mi, 21.10. 14:00 0.0 l/m2 in 6 Std. -
Mi, 21.10. 8:00 0.0 l/m2 in 12 Std. -
Mi, 21.10. 2:00 0.0 l/m2 in 6 Std. -
Di, 20.10. 20:00 0.0 l/m2 in 12 Std. -
Di, 20.10. 14:00 0.0 l/m2 in 6 Std. -
Di, 20.10. 8:00 0.0 l/m2 in 12 Std. -
Di, 20.10. 2:00 0.0 l/m2 in 6 Std. -
Mo, 19.10. 20:00 0.0 l/m2 in 12 Std. -
Ortszeit Niederschlagsmenge Niederschlagsart
Mi, 21.10. 18:00 keine Meldung -
Mi, 21.10. 17:55 keine Meldung -
Mi, 21.10. 17:00 keine Meldung -
Mi, 21.10. 16:55 keine Meldung -
Mi, 21.10. 16:00 keine Meldung -
Mi, 21.10. 15:55 keine Meldung -
Mi, 21.10. 15:00 keine Meldung -
Mi, 21.10. 14:55 keine Meldung -
Mi, 21.10. 14:00 keine Meldung -
Ortszeit Stärke Spitze Richtung
km/h Bft. km/h Grad Sektor
Mi, 21.10. 14:00 9 2 - 170° S
Mi, 21.10. 8:00 17 3 - 300° NW
Mi, 21.10. 2:00 19 3 - 300° NW
Di, 20.10. 20:00 15 3 - 160° S
Di, 20.10. 14:00 15 3 - 140° SO
Di, 20.10. 8:00 22 4 - 310° NW
Di, 20.10. 2:00 20 4 - 310° NW
Mo, 19.10. 20:00 7 2 - 190° S
Ortszeit Stärke Spitze Richtung
km/h Bft. km/h Grad Sektor
Mi, 21.10. 18:00 11 2 - 170° S
Mi, 21.10. 17:55 11 2 - 170° S
Mi, 21.10. 17:00 13 3 - 360° N
Mi, 21.10. 16:55 13 3 - 360° N
Mi, 21.10. 16:00 15 3 - 310° NW
Mi, 21.10. 15:55 15 3 - 310° NW
Mi, 21.10. 15:00 9 2 - 150° SO
Mi, 21.10. 14:55 9 2 - 150° SO
Mi, 21.10. 14:00 9 2 - 170° S
Ortszeit Untergrenze Bedeckung Gattung
total tief tief mittel hoch
Mi, 21.10. 14:00 900 m 4/8 4/8 Cu - -
Mi, 21.10. 8:00 900 m 6/8 6/8 Cu - -
Mi, 21.10. 2:00 6000 m 3/8 3/8 - - Ci
Di, 20.10. 20:00 1050 m 5/8 3/8 Cu - Ci
Di, 20.10. 14:00 1050 m 4/8 4/8 Cu - -
Di, 20.10. 8:00 1050 m 3/8 1/8 Cu - Ci
Di, 20.10. 2:00 1050 m 1/8 1/8 Cu - Ci
Mo, 19.10. 20:00 900 m 4/8 3/8 Cu - Ci
Ortszeit Bedeckungsgrad in Achtel und Wolkenuntergrenze
Mi, 21.10. 18:00 4(900m)
Mi, 21.10. 17:55 3-4(900m)
Mi, 21.10. 17:00 4(900m)
Mi, 21.10. 16:55 3-4(900m)
Mi, 21.10. 16:00 3(900m)
Mi, 21.10. 15:55 3-4(900m)
Mi, 21.10. 15:00 3(900m)
Mi, 21.10. 14:55 3-4(900m)
Mi, 21.10. 14:00 4(900m)
Ortszeit Luftdruck NN (hPa) Tendenz (hPa in 3 Std.)
Mi, 21.10. 14:00 1022 0,0
Mi, 21.10. 8:00 1022 - 0,5
Mi, 21.10. 2:00 1023 - 0,3
Di, 20.10. 20:00 1023 0,0
Di, 20.10. 14:00 1024 + 0,2
Di, 20.10. 8:00 1024 + 0,2
Di, 20.10. 2:00 1024 + 0,1
Mo, 19.10. 20:00 1023 0,0
Ortszeit Luftdruck NN (hPa) Tendenz (hPa in 3 Std.)
Mi, 21.10. 18:00 1021 - 0,4
Mi, 21.10. 17:55 1021 keine Meldung
Mi, 21.10. 17:00 1021 - 0,9
Mi, 21.10. 16:55 1021 keine Meldung
Mi, 21.10. 16:00 1021 - 1,3
Mi, 21.10. 15:55 1021 keine Meldung
Mi, 21.10. 15:00 1021 - 1,1
Mi, 21.10. 14:55 1021 keine Meldung
Mi, 21.10. 14:00 1022 0,0
Ortszeit Schneehöhe (cm)
Mi, 21.10. 14:00 -
Mi, 21.10. 8:00 -
Mi, 21.10. 2:00 -
Di, 20.10. 20:00 -
Di, 20.10. 14:00 -
Di, 20.10. 8:00 0
Di, 20.10. 2:00 -
Mo, 19.10. 20:00 -
Ortszeit Schneehöhe (cm)
Mi, 21.10. 18:00 -
Mi, 21.10. 17:55 -
Mi, 21.10. 17:00 -
Mi, 21.10. 16:55 -
Mi, 21.10. 16:00 -
Mi, 21.10. 15:55 -
Mi, 21.10. 15:00 -
Mi, 21.10. 14:55 -
Mi, 21.10. 14:00 -
Link zu dieser Seite / Seite empfehlen

Das Wetter in ...